IkaScore Players IkaScore Alliances






Support IkaScore

Please donate to
me@ikascore.com

using Skrill
Latvia Epsilon
Ikariam players: 50
AverageTotal
Kopējais punktu skaits: 23745961 1187298031
Celtnieki: 19670755 983537771
Celtniecības līmeņi: 3035 4367542
Zinātnieki: 877334 1262482979
Pētniecības līmenis: 296 425996
Ģenerāļi: 11613 16711359
Zelts: 35951493 1797574626
Uzbrukuma punkti: 1869 2690112
Aizsardzības punkti: 2957 4255254
Tirdzniecības statistika: 2218 3191059
Resursi: 14783292 739164599
ziedot: 448618 645561196
Score vulnerability: 190902 274707795
Gold vulnerability: 4117 5924967
Population: 17668 25424394
Donations to score: 366465 527343532

Digg! Delicious! IkaScore homepage
Alliances - Kopējais punktu skaits
  per page  
Rank Alliance Score Type Average Score Updated
1 LAT Kopējais punktu skaits 10669113 1056242211 11/06 16:33
2 ZXN Kopējais punktu skaits 9787127 949351363 11/06 16:33
3 EŽI Kopējais punktu skaits 49253446 640294795 11/06 16:33
4 NEZIN Kopējais punktu skaits 9416996 565019755 11/06 16:33
5 P-Z Kopējais punktu skaits 9597271 479863532 11/06 16:33
6 KidLV Kopējais punktu skaits 10696093 406451531 11/06 16:33
7 K15R Kopējais punktu skaits 19879448 198794482 11/06 16:33
8 SOG Kopējais punktu skaits 10628285 180680845 11/06 16:33
9 DESA Kopējais punktu skaits 8148690 179271184 11/06 16:33
10 BNK Kopējais punktu skaits 1817679 165408770 11/06 16:33
11 LVS- Kopējais punktu skaits 13011116 117100045 11/06 16:33
12 PO- Kopējais punktu skaits 8836311 106035728 11/06 16:33
13 SPARS Kopējais punktu skaits 13579454 95056175 11/06 16:33
14 -AHA- Kopējais punktu skaits 4289826 94376176 11/06 16:33
15 TRVIP Kopējais punktu skaits 5297525 90057929 11/06 16:33
16 -FX- Kopējais punktu skaits 9797556 88178000 11/06 16:33
17 RedS Kopējais punktu skaits 13926663 69633314 11/06 16:33
18 KuP Kopējais punktu skaits 4114007 57596092 11/06 16:33
19 new Kopējais punktu skaits 5151347 56664813 11/06 16:33
20 Z P Kopējais punktu skaits 19099471 38198941 11/06 16:33
21 L V K Kopējais punktu skaits 3918228 35264055 11/06 16:33
22 Kat Kopējais punktu skaits 16961910 33923820 11/06 16:33
23 _LK_ Kopējais punktu skaits 5412310 32473857 11/06 16:33
24 LVO Kopējais punktu skaits 8087485 32349938 11/06 16:33
25 KF P Kopējais punktu skaits 31053004 31053004 11/06 16:33
26 B_S Kopējais punktu skaits 4398085 30786597 11/06 16:33
27 123e Kopējais punktu skaits 22217009 22217009 11/06 16:33
28 TAG Kopējais punktu skaits 836643 21752727 11/06 16:33
29 Andre Kopējais punktu skaits 17646137 17646137 11/06 16:33
30 D-H Kopējais punktu skaits 17608893 17608893 11/06 16:33
31 FIRE Kopējais punktu skaits 5559312 16677936 11/06 16:33
32 LVL Kopējais punktu skaits 2962941 14814705 11/06 16:33
33 -OO- Kopējais punktu skaits 7343596 14687191 11/06 16:33
34 NEZLN Kopējais punktu skaits 1589091 14301819 11/06 16:33
35 NRWL Kopējais punktu skaits 1876826 13137783 11/06 16:33
36 BANDA Kopējais punktu skaits 580842 12197680 11/06 16:33
37 LLS Kopējais punktu skaits 1693289 11853022 11/06 16:33
38 -KC- Kopējais punktu skaits 10350912 10350912 11/06 16:33
39 B-I-A Kopējais punktu skaits 2029110 10145550 11/06 16:33
40 S-M Kopējais punktu skaits 843066 10116793 11/06 16:33
41 -CP- Kopējais punktu skaits 3347293 10041880 11/06 16:33
42 Ku-kū Kopējais punktu skaits 9576918 9576918 11/06 16:33
43 V-V Kopējais punktu skaits 9491168 9491168 11/06 16:33
44 BrivL Kopējais punktu skaits 1160608 9284860 11/06 16:33
45 AGs Kopējais punktu skaits 4409560 8819119 11/06 16:33
46 -re- Kopējais punktu skaits 8807637 8807637 11/06 16:33
47 ENDE Kopējais punktu skaits 135765 7467051 11/06 16:33
48 Bot Kopējais punktu skaits 700835 5606679 11/06 16:33
49 -NV- Kopējais punktu skaits 5571249 5571249 11/06 16:33
50 ILG Kopējais punktu skaits 5160316 5160316 11/06 16:33
51 legia Kopējais punktu skaits 5033554 5033554 11/06 16:33
52 P-P Kopējais punktu skaits 277891 5002045 11/06 16:33
53 oWo Kopējais punktu skaits 2432580 4865160 11/06 16:33
54 SANS Kopējais punktu skaits 4285203 4285203 11/06 16:33
55 -PM- Kopējais punktu skaits 2066772 4133543 11/06 16:33
56 G-Man Kopējais punktu skaits 217677 3918181 11/06 16:33
57 BEK Kopējais punktu skaits 3534914 3534914 11/06 16:33
58 DRAG Kopējais punktu skaits 1154213 3462639 11/06 16:33
59 B_N Kopējais punktu skaits 472108 3304753 11/06 16:33
60 Saw Kopējais punktu skaits 2681547 2681547 11/06 16:33
61 ZAZ Kopējais punktu skaits 2634254 2634254 11/06 16:33
62 321 Kopējais punktu skaits 2521931 2521931 11/06 16:33
63 ROKO Kopējais punktu skaits 2211128 2211128 11/06 16:33
64 exKUP Kopējais punktu skaits 2089390 2089390 11/06 16:33
65 Vilki Kopējais punktu skaits 313894 1883362 11/06 16:33
66 NML Kopējais punktu skaits 1643086 1643086 11/06 16:33
67 LVF Kopējais punktu skaits 1378814 1378814 11/06 16:33
68 KKK Kopējais punktu skaits 194521 1361645 11/06 16:33
69 CIR Kopējais punktu skaits 1028819 1028819 11/06 16:33
70 TRp Kopējais punktu skaits 102320 920882 11/06 16:33
71 KVL Kopējais punktu skaits 795258 795258 11/06 16:33
72 PiR Kopējais punktu skaits 753191 753191 11/06 16:33
73 ODA Kopējais punktu skaits 695516 695516 11/06 16:33
74 EGY Kopējais punktu skaits 399615 399615 11/06 16:33
75 DUJA Kopējais punktu skaits 213780 213780 11/06 16:33
76 D-M Kopējais punktu skaits 191087 191087 11/06 16:33
77 uwu Kopējais punktu skaits 132635 132635 11/06 16:33
78 SWS Kopējais punktu skaits 120459 120459 11/06 16:33
79 janis Kopējais punktu skaits 5308 5308 11/06 16:33
  per page  

Copyright © 2010 IkaScore.com All Rights Reserved | Disclaimer